sensor_id;sensor_type;location;lat;lon;timestamp;P1;durP1;ratioP1;P2;durP2;ratioP2
23490;SDS011;14683;50.038;8.078;2022-08-21T06:01:43;8.20;;;3.23;;
23490;SDS011;14683;50.038;8.078;2022-08-21T06:04:11;7.68;;;3.30;;
23490;SDS011;14683;50.038;8.078;2022-08-21T06:06:37;8.13;;;3.08;;
23490;SDS011;14683;50.038;8.078;2022-08-21T06:09:04;9.15;;;3.00;;
23490;SDS011;14683;50.038;8.078;2022-08-21T06:11:30;5.80;;;3.17;;
23490;SDS011;14683;50.038;8.078;2022-08-21T06:13:57;7.55;;;3.33;;
23490;SDS011;14683;50.038;8.078;2022-08-21T06:16:23;6.65;;;3.75;;
23490;SDS011;14683;50.038;8.078;2022-08-21T06:18:49;7.38;;;3.22;;
23490;SDS011;14683;50.038;8.078;2022-08-21T06:21:15;9.82;;;2.75;;
23490;SDS011;14683;50.038;8.078;2022-08-21T06:23:42;8.13;;;3.28;;
23490;SDS011;14683;50.038;8.078;2022-08-21T06:26:09;6.25;;;2.80;;
23490;SDS011;14683;50.038;8.078;2022-08-21T06:28:36;6.90;;;3.00;;
23490;SDS011;14683;50.038;8.078;2022-08-21T06:31:16;8.63;;;3.10;;
23490;SDS011;14683;50.038;8.078;2022-08-21T06:33:46;8.75;;;3.40;;
23490;SDS011;14683;50.038;8.078;2022-08-21T06:36:12;6.22;;;3.03;;
23490;SDS011;14683;50.038;8.078;2022-08-21T06:38:39;7.50;;;3.25;;
23490;SDS011;14683;50.038;8.078;2022-08-21T06:41:05;5.50;;;3.10;;
23490;SDS011;14683;50.038;8.078;2022-08-21T06:43:32;5.18;;;2.70;;
23490;SDS011;14683;50.038;8.078;2022-08-21T06:45:59;10.25;;;3.35;;
23490;SDS011;14683;50.038;8.078;2022-08-21T06:48:25;4.65;;;3.25;;
23490;SDS011;14683;50.038;8.078;2022-08-21T06:50:51;7.45;;;3.28;;
23490;SDS011;14683;50.038;8.078;2022-08-21T06:55:44;9.25;;;3.60;;
23490;SDS011;14683;50.038;8.078;2022-08-21T06:58:11;9.45;;;3.38;;
23490;SDS011;14683;50.038;8.078;2022-08-21T07:00:38;8.52;;;3.47;;
23490;SDS011;14683;50.038;8.078;2022-08-21T07:03:05;10.75;;;3.72;;
23490;SDS011;14683;50.038;8.078;2022-08-21T07:07:57;8.45;;;3.53;;
23490;SDS011;14683;50.038;8.078;2022-08-21T07:12:50;4.67;;;3.53;;
23490;SDS011;14683;50.038;8.078;2022-08-21T07:15:18;7.30;;;3.45;;
23490;SDS011;14683;50.038;8.078;2022-08-21T07:17:44;8.27;;;3.05;;
23490;SDS011;14683;50.038;8.078;2022-08-21T07:20:10;7.15;;;3.53;;
23490;SDS011;14683;50.038;8.078;2022-08-21T07:22:36;8.80;;;3.30;;
23490;SDS011;14683;50.038;8.078;2022-08-21T07:25:04;7.45;;;3.30;;
23490;SDS011;14683;50.038;8.078;2022-08-21T07:27:31;7.57;;;3.25;;
23490;SDS011;14683;50.038;8.078;2022-08-21T07:29:57;7.50;;;3.72;;
23490;SDS011;14683;50.038;8.078;2022-08-21T07:32:23;9.90;;;3.85;;
23490;SDS011;14683;50.038;8.078;2022-08-21T07:34:50;7.13;;;3.22;;
23490;SDS011;14683;50.038;8.078;2022-08-21T07:37:16;6.03;;;3.53;;
23490;SDS011;14683;50.038;8.078;2022-08-21T07:39:42;6.68;;;3.42;;
23490;SDS011;14683;50.038;8.078;2022-08-21T07:44:35;7.28;;;3.67;;
23490;SDS011;14683;50.038;8.078;2022-08-21T07:47:01;8.80;;;3.25;;
23490;SDS011;14683;50.038;8.078;2022-08-21T07:49:28;6.78;;;3.40;;
23490;SDS011;14683;50.038;8.078;2022-08-21T07:51:55;7.88;;;3.38;;
23490;SDS011;14683;50.038;8.078;2022-08-21T07:54:21;7.45;;;3.95;;
23490;SDS011;14683;50.038;8.078;2022-08-21T07:56:47;5.47;;;3.03;;
23490;SDS011;14683;50.038;8.078;2022-08-21T07:59:13;11.95;;;3.65;;
23490;SDS011;14683;50.038;8.078;2022-08-21T08:01:39;10.95;;;3.95;;
23490;SDS011;14683;50.038;8.078;2022-08-21T08:04:05;7.85;;;3.92;;
23490;SDS011;14683;50.038;8.078;2022-08-21T08:08:57;10.30;;;4.07;;
23490;SDS011;14683;50.038;8.078;2022-08-21T08:11:23;9.30;;;3.75;;
23490;SDS011;14683;50.038;8.078;2022-08-21T08:13:49;6.18;;;3.65;;
23490;SDS011;14683;50.038;8.078;2022-08-21T08:16:16;6.55;;;3.47;;
23490;SDS011;14683;50.038;8.078;2022-08-21T08:18:43;7.47;;;3.40;;
23490;SDS011;14683;50.038;8.078;2022-08-21T08:21:10;7.43;;;3.83;;
23490;SDS011;14683;50.038;8.078;2022-08-21T08:23:37;9.13;;;4.28;;
23490;SDS011;14683;50.038;8.078;2022-08-21T08:26:03;7.05;;;4.18;;
23490;SDS011;14683;50.038;8.078;2022-08-21T08:30:57;8.82;;;4.03;;
23490;SDS011;14683;50.038;8.078;2022-08-21T08:33:24;8.13;;;3.80;;
23490;SDS011;14683;50.038;8.078;2022-08-21T08:35:50;7.63;;;3.72;;
23490;SDS011;14683;50.038;8.078;2022-08-21T08:38:17;10.18;;;3.45;;
23490;SDS011;14683;50.038;8.078;2022-08-21T08:41:08;7.15;;;3.45;;
23490;SDS011;14683;50.038;8.078;2022-08-21T08:43:33;8.77;;;4.00;;
23490;SDS011;14683;50.038;8.078;2022-08-21T08:46:02;8.38;;;4.13;;
23490;SDS011;14683;50.038;8.078;2022-08-21T08:48:33;9.30;;;4.80;;
23490;SDS011;14683;50.038;8.078;2022-08-21T08:51:06;8.40;;;3.97;;
23490;SDS011;14683;50.038;8.078;2022-08-21T08:53:45;10.70;;;4.30;;
23490;SDS011;14683;50.038;8.078;2022-08-21T08:56:17;13.02;;;4.47;;
23490;SDS011;14683;50.038;8.078;2022-08-21T08:58:44;5.70;;;3.00;;
23490;SDS011;14683;50.038;8.078;2022-08-21T09:01:16;9.35;;;3.38;;
23490;SDS011;14683;50.038;8.078;2022-08-21T09:03:44;6.32;;;3.47;;
23490;SDS011;14683;50.038;8.078;2022-08-21T09:08:50;8.85;;;3.83;;
23490;SDS011;14683;50.038;8.078;2022-08-21T09:11:29;9.02;;;2.75;;
23490;SDS011;14683;50.038;8.078;2022-08-21T09:19:45;5.70;;;2.60;;
23490;SDS011;14683;50.038;8.078;2022-08-21T09:25:24;7.97;;;3.22;;
23490;SDS011;14683;50.038;8.078;2022-08-21T09:27:52;4.97;;;2.53;;
23490;SDS011;14683;50.038;8.078;2022-08-21T09:30:19;4.97;;;2.65;;
23490;SDS011;14683;50.038;8.078;2022-08-21T09:32:49;8.73;;;3.15;;
23490;SDS011;14683;50.038;8.078;2022-08-21T09:35:17;8.50;;;3.13;;
23490;SDS011;14683;50.038;8.078;2022-08-21T09:37:55;8.88;;;3.28;;
23490;SDS011;14683;50.038;8.078;2022-08-21T09:40:40;7.05;;;2.90;;
23490;SDS011;14683;50.038;8.078;2022-08-21T09:48:09;5.45;;;2.97;;
23490;SDS011;14683;50.038;8.078;2022-08-21T09:50:35;5.78;;;2.53;;
23490;SDS011;14683;50.038;8.078;2022-08-21T09:53:01;13.52;;;3.38;;
23490;SDS011;14683;50.038;8.078;2022-08-21T09:58:15;7.43;;;2.67;;
23490;SDS011;14683;50.038;8.078;2022-08-21T10:00:42;5.50;;;2.83;;
23490;SDS011;14683;50.038;8.078;2022-08-21T10:03:14;7.07;;;2.90;;
23490;SDS011;14683;50.038;8.078;2022-08-21T10:05:53;6.23;;;2.87;;
23490;SDS011;14683;50.038;8.078;2022-08-21T10:08:31;6.15;;;2.63;;
23490;SDS011;14683;50.038;8.078;2022-08-21T10:11:12;5.80;;;2.58;;
23490;SDS011;14683;50.038;8.078;2022-08-21T10:13:45;6.32;;;2.75;;
23490;SDS011;14683;50.038;8.078;2022-08-21T10:16:15;5.53;;;2.80;;
23490;SDS011;14683;50.038;8.078;2022-08-21T10:19:02;8.23;;;2.72;;
23490;SDS011;14683;50.038;8.078;2022-08-21T10:21:38;7.07;;;2.70;;
23490;SDS011;14683;50.038;8.078;2022-08-21T10:24:25;3.80;;;2.83;;
23490;SDS011;14683;50.038;8.078;2022-08-21T10:38:00;5.82;;;2.72;;
23490;SDS011;14683;50.038;8.078;2022-08-21T10:43:36;7.68;;;2.92;;
23490;SDS011;14683;50.038;8.078;2022-08-21T10:46:15;5.32;;;2.97;;
23490;SDS011;14683;50.038;8.078;2022-08-21T10:51:24;5.18;;;2.20;;
23490;SDS011;14683;50.038;8.078;2022-08-21T10:54:02;7.32;;;2.78;;
23490;SDS011;14683;50.038;8.078;2022-08-21T10:56:33;5.07;;;2.40;;
23490;SDS011;14683;50.038;8.078;2022-08-21T10:59:04;8.73;;;2.50;;
23490;SDS011;14683;50.038;8.078;2022-08-21T11:07:00;6.10;;;2.92;;
23490;SDS011;14683;50.038;8.078;2022-08-21T11:09:43;5.88;;;2.58;;
23490;SDS011;14683;50.038;8.078;2022-08-21T11:12:19;7.25;;;2.80;;
23490;SDS011;14683;50.038;8.078;2022-08-21T11:14:52;7.18;;;2.70;;
23490;SDS011;14683;50.038;8.078;2022-08-21T11:17:28;8.73;;;2.85;;
23490;SDS011;14683;50.038;8.078;2022-08-21T11:20:10;5.60;;;2.70;;
23490;SDS011;14683;50.038;8.078;2022-08-21T11:25:21;4.95;;;2.30;;
23490;SDS011;14683;50.038;8.078;2022-08-21T11:27:50;7.45;;;3.05;;
23490;SDS011;14683;50.038;8.078;2022-08-21T11:30:22;5.60;;;2.40;;
23490;SDS011;14683;50.038;8.078;2022-08-21T11:38:09;6.45;;;2.63;;
23490;SDS011;14683;50.038;8.078;2022-08-21T11:43:36;5.13;;;2.70;;
23490;SDS011;14683;50.038;8.078;2022-08-21T11:49:04;5.90;;;2.50;;
23490;SDS011;14683;50.038;8.078;2022-08-21T11:57:55;4.90;;;2.47;;
23490;SDS011;14683;50.038;8.078;2022-08-21T12:00:29;5.33;;;3.00;;
23490;SDS011;14683;50.038;8.078;2022-08-21T12:02:59;5.30;;;2.55;;
23490;SDS011;14683;50.038;8.078;2022-08-21T12:05:34;2.58;;;2.05;;
23490;SDS011;14683;50.038;8.078;2022-08-21T12:08:09;6.85;;;2.40;;
23490;SDS011;14683;50.038;8.078;2022-08-21T12:10:40;5.10;;;2.43;;
23490;SDS011;14683;50.038;8.078;2022-08-21T12:13:21;5.03;;;2.55;;
23490;SDS011;14683;50.038;8.078;2022-08-21T12:15:50;6.00;;;2.53;;
23490;SDS011;14683;50.038;8.078;2022-08-21T12:18:24;2.35;;;2.15;;
23490;SDS011;14683;50.038;8.078;2022-08-21T12:20:57;4.82;;;2.42;;
23490;SDS011;14683;50.038;8.078;2022-08-21T12:23:35;3.75;;;2.38;;
23490;SDS011;14683;50.038;8.078;2022-08-21T12:26:17;5.68;;;2.63;;
23490;SDS011;14683;50.038;8.078;2022-08-21T12:29:13;6.18;;;2.45;;
23490;SDS011;14683;50.038;8.078;2022-08-21T12:31:56;5.22;;;2.60;;
23490;SDS011;14683;50.038;8.078;2022-08-21T12:34:24;6.88;;;2.60;;
23490;SDS011;14683;50.038;8.078;2022-08-21T12:36:59;5.25;;;2.72;;
23490;SDS011;14683;50.038;8.078;2022-08-21T12:39:29;5.75;;;2.53;;
23490;SDS011;14683;50.038;8.078;2022-08-21T12:42:04;4.70;;;2.05;;
23490;SDS011;14683;50.038;8.078;2022-08-21T12:44:54;6.55;;;2.53;;
23490;SDS011;14683;50.038;8.078;2022-08-21T12:55:56;7.32;;;2.20;;
23490;SDS011;14683;50.038;8.078;2022-08-21T12:58:27;3.25;;;2.17;;
23490;SDS011;14683;50.038;8.078;2022-08-21T13:00:59;4.50;;;2.17;;
23490;SDS011;14683;50.038;8.078;2022-08-21T13:03:36;4.50;;;2.30;;
23490;SDS011;14683;50.038;8.078;2022-08-21T13:06:03;4.03;;;2.25;;
23490;SDS011;14683;50.038;8.078;2022-08-21T13:08:30;3.55;;;2.15;;
23490;SDS011;14683;50.038;8.078;2022-08-21T13:11:00;4.90;;;2.28;;
23490;SDS011;14683;50.038;8.078;2022-08-21T13:13:29;5.22;;;2.45;;
23490;SDS011;14683;50.038;8.078;2022-08-21T13:15:59;7.70;;;2.60;;
23490;SDS011;14683;50.038;8.078;2022-08-21T13:18:30;5.25;;;2.20;;
23490;SDS011;14683;50.038;8.078;2022-08-21T13:21:10;8.00;;;2.85;;
23490;SDS011;14683;50.038;8.078;2022-08-21T13:23:38;5.22;;;2.10;;
23490;SDS011;14683;50.038;8.078;2022-08-21T13:26:14;4.18;;;2.35;;
23490;SDS011;14683;50.038;8.078;2022-08-21T13:28:42;3.42;;;2.08;;
23490;SDS011;14683;50.038;8.078;2022-08-21T13:31:13;3.03;;;2.00;;
23490;SDS011;14683;50.038;8.078;2022-08-21T13:33:44;4.90;;;2.10;;
23490;SDS011;14683;50.038;8.078;2022-08-21T13:36:11;3.13;;;1.95;;
23490;SDS011;14683;50.038;8.078;2022-08-21T13:38:41;6.85;;;2.30;;
23490;SDS011;14683;50.038;8.078;2022-08-21T13:41:30;3.80;;;2.17;;
23490;SDS011;14683;50.038;8.078;2022-08-21T13:46:29;1.80;;;1.58;;
23490;SDS011;14683;50.038;8.078;2022-08-21T13:49:01;5.78;;;2.30;;
23490;SDS011;14683;50.038;8.078;2022-08-21T13:51:29;4.90;;;1.92;;
23490;SDS011;14683;50.038;8.078;2022-08-21T13:53:57;3.63;;;1.90;;
23490;SDS011;14683;50.038;8.078;2022-08-21T13:58:51;4.40;;;1.95;;
23490;SDS011;14683;50.038;8.078;2022-08-21T14:01:22;3.22;;;1.90;;
23490;SDS011;14683;50.038;8.078;2022-08-21T14:03:55;3.35;;;1.70;;
23490;SDS011;14683;50.038;8.078;2022-08-21T14:06:24;3.65;;;1.88;;
23490;SDS011;14683;50.038;8.078;2022-08-21T14:08:56;3.97;;;1.50;;
23490;SDS011;14683;50.038;8.078;2022-08-21T14:11:25;3.25;;;1.85;;
23490;SDS011;14683;50.038;8.078;2022-08-21T14:16:24;2.42;;;1.60;;
23490;SDS011;14683;50.038;8.078;2022-08-21T14:21:32;4.07;;;1.80;;
23490;SDS011;14683;50.038;8.078;2022-08-21T14:24:04;6.18;;;1.88;;
23490;SDS011;14683;50.038;8.078;2022-08-21T14:27:07;2.28;;;1.80;;
23490;SDS011;14683;50.038;8.078;2022-08-21T14:29:35;3.45;;;1.60;;
23490;SDS011;14683;50.038;8.078;2022-08-21T14:32:22;2.88;;;1.63;;
23490;SDS011;14683;50.038;8.078;2022-08-21T14:34:55;3.63;;;1.58;;
23490;SDS011;14683;50.038;8.078;2022-08-21T14:37:22;5.25;;;2.10;;
23490;SDS011;14683;50.038;8.078;2022-08-21T14:39:49;4.50;;;1.77;;
23490;SDS011;14683;50.038;8.078;2022-08-21T14:42:15;2.92;;;1.52;;
23490;SDS011;14683;50.038;8.078;2022-08-21T14:44:42;3.63;;;2.13;;
23490;SDS011;14683;50.038;8.078;2022-08-21T14:49:34;4.20;;;1.83;;
23490;SDS011;14683;50.038;8.078;2022-08-21T14:54:26;3.65;;;1.80;;
23490;SDS011;14683;50.038;8.078;2022-08-21T14:56:54;5.30;;;1.90;;
23490;SDS011;14683;50.038;8.078;2022-08-21T14:59:21;4.25;;;1.80;;
23490;SDS011;14683;50.038;8.078;2022-08-21T15:01:47;5.07;;;2.00;;
23490;SDS011;14683;50.038;8.078;2022-08-21T15:04:13;3.88;;;1.85;;
23490;SDS011;14683;50.038;8.078;2022-08-21T15:06:39;8.15;;;1.85;;
23490;SDS011;14683;50.038;8.078;2022-08-21T15:09:05;3.45;;;2.15;;
23490;SDS011;14683;50.038;8.078;2022-08-21T15:11:32;4.78;;;1.73;;
23490;SDS011;14683;50.038;8.078;2022-08-21T15:14:00;4.15;;;2.05;;
23490;SDS011;14683;50.038;8.078;2022-08-21T15:16:29;3.78;;;1.50;;
23490;SDS011;14683;50.038;8.078;2022-08-21T15:18:57;6.22;;;1.60;;
23490;SDS011;14683;50.038;8.078;2022-08-21T15:21:23;3.95;;;1.70;;
23490;SDS011;14683;50.038;8.078;2022-08-21T15:23:49;2.88;;;1.48;;
23490;SDS011;14683;50.038;8.078;2022-08-21T15:26:15;3.95;;;2.15;;
23490;SDS011;14683;50.038;8.078;2022-08-21T15:28:41;6.47;;;1.88;;
23490;SDS011;14683;50.038;8.078;2022-08-21T15:31:07;5.07;;;1.80;;
23490;SDS011;14683;50.038;8.078;2022-08-21T15:33:33;2.92;;;1.67;;
23490;SDS011;14683;50.038;8.078;2022-08-21T15:36:00;4.82;;;1.80;;
23490;SDS011;14683;50.038;8.078;2022-08-21T15:38:26;3.72;;;1.70;;
23490;SDS011;14683;50.038;8.078;2022-08-21T15:40:52;4.07;;;1.63;;
23490;SDS011;14683;50.038;8.078;2022-08-21T15:45:54;4.10;;;1.65;;
23490;SDS011;14683;50.038;8.078;2022-08-21T15:48:20;5.82;;;1.90;;
23490;SDS011;14683;50.038;8.078;2022-08-21T15:50:47;4.80;;;1.98;;
23490;SDS011;14683;50.038;8.078;2022-08-21T15:53:13;4.10;;;1.90;;
23490;SDS011;14683;50.038;8.078;2022-08-21T15:55:39;4.50;;;1.85;;
23490;SDS011;14683;50.038;8.078;2022-08-21T15:58:06;4.43;;;1.45;;
23490;SDS011;14683;50.038;8.078;2022-08-21T16:00:34;4.25;;;1.75;;
23490;SDS011;14683;50.038;8.078;2022-08-21T16:03:00;2.67;;;1.60;;
23490;SDS011;14683;50.038;8.078;2022-08-21T16:05:29;2.58;;;1.60;;
23490;SDS011;14683;50.038;8.078;2022-08-21T16:10:22;3.80;;;1.80;;
23490;SDS011;14683;50.038;8.078;2022-08-21T16:12:49;3.78;;;1.50;;
23490;SDS011;14683;50.038;8.078;2022-08-21T16:15:18;4.82;;;1.80;;
23490;SDS011;14683;50.038;8.078;2022-08-21T16:17:44;2.63;;;1.50;;
23490;SDS011;14683;50.038;8.078;2022-08-21T16:20:22;3.67;;;1.60;;
23490;SDS011;14683;50.038;8.078;2022-08-21T16:22:51;2.17;;;1.48;;
23490;SDS011;14683;50.038;8.078;2022-08-21T16:25:18;2.75;;;1.60;;
23490;SDS011;14683;50.038;8.078;2022-08-21T16:27:45;5.10;;;1.65;;
23490;SDS011;14683;50.038;8.078;2022-08-21T16:30:15;2.83;;;1.48;;
23490;SDS011;14683;50.038;8.078;2022-08-21T16:32:42;2.35;;;1.40;;
23490;SDS011;14683;50.038;8.078;2022-08-21T16:35:10;3.15;;;1.50;;
23490;SDS011;14683;50.038;8.078;2022-08-21T16:37:38;2.72;;;1.45;;
23490;SDS011;14683;50.038;8.078;2022-08-21T16:40:05;2.42;;;1.30;;
23490;SDS011;14683;50.038;8.078;2022-08-21T16:42:33;2.45;;;1.20;;
23490;SDS011;14683;50.038;8.078;2022-08-21T16:45:00;2.92;;;1.15;;
23490;SDS011;14683;50.038;8.078;2022-08-21T16:47:29;2.70;;;1.65;;
23490;SDS011;14683;50.038;8.078;2022-08-21T16:49:56;1.65;;;1.10;;
23490;SDS011;14683;50.038;8.078;2022-08-21T16:52:23;3.20;;;1.50;;
23490;SDS011;14683;50.038;8.078;2022-08-21T16:54:49;4.00;;;1.75;;
23490;SDS011;14683;50.038;8.078;2022-08-21T16:57:15;3.58;;;1.60;;
23490;SDS011;14683;50.038;8.078;2022-08-21T16:59:41;2.13;;;1.30;;
23490;SDS011;14683;50.038;8.078;2022-08-21T17:02:12;1.30;;;1.20;;
23490;SDS011;14683;50.038;8.078;2022-08-21T17:04:46;1.63;;;1.40;;
23490;SDS011;14683;50.038;8.078;2022-08-21T17:07:12;4.18;;;1.50;;
23490;SDS011;14683;50.038;8.078;2022-08-21T17:09:38;2.33;;;1.27;;
23490;SDS011;14683;50.038;8.078;2022-08-21T17:12:04;2.20;;;1.15;;
23490;SDS011;14683;50.038;8.078;2022-08-21T17:14:30;3.42;;;1.55;;
23490;SDS011;14683;50.038;8.078;2022-08-21T17:16:56;3.33;;;1.25;;
23490;SDS011;14683;50.038;8.078;2022-08-21T17:19:24;2.25;;;1.25;;
23490;SDS011;14683;50.038;8.078;2022-08-21T17:21:50;1.70;;;1.45;;
23490;SDS011;14683;50.038;8.078;2022-08-21T17:24:16;3.63;;;1.83;;
23490;SDS011;14683;50.038;8.078;2022-08-21T17:29:08;1.90;;;1.30;;
23490;SDS011;14683;50.038;8.078;2022-08-21T17:31:38;1.77;;;1.30;;
23490;SDS011;14683;50.038;8.078;2022-08-21T17:34:04;3.47;;;1.40;;
23490;SDS011;14683;50.038;8.078;2022-08-21T17:38:56;3.90;;;1.30;;
23490;SDS011;14683;50.038;8.078;2022-08-21T17:41:23;1.73;;;1.40;;
23490;SDS011;14683;50.038;8.078;2022-08-21T17:43:50;2.38;;;1.40;;
23490;SDS011;14683;50.038;8.078;2022-08-21T17:46:23;4.75;;;1.33;;
23490;SDS011;14683;50.038;8.078;2022-08-21T17:48:52;2.85;;;1.48;;
23490;SDS011;14683;50.038;8.078;2022-08-21T17:51:19;2.25;;;1.00;;
23490;SDS011;14683;50.038;8.078;2022-08-21T17:53:45;4.25;;;1.13;;
23490;SDS011;14683;50.038;8.078;2022-08-21T17:56:12;3.83;;;1.30;;
23490;SDS011;14683;50.038;8.078;2022-08-21T17:58:39;2.20;;;0.93;;
23490;SDS011;14683;50.038;8.078;2022-08-21T18:01:12;1.90;;;1.35;;
23490;SDS011;14683;50.038;8.078;2022-08-21T18:03:38;3.45;;;1.30;;
23490;SDS011;14683;50.038;8.078;2022-08-21T18:06:04;4.30;;;1.40;;
23490;SDS011;14683;50.038;8.078;2022-08-21T18:08:31;3.13;;;1.25;;
23490;SDS011;14683;50.038;8.078;2022-08-21T18:10:57;1.58;;;1.02;;
23490;SDS011;14683;50.038;8.078;2022-08-21T18:15:54;2.05;;;1.10;;
23490;SDS011;14683;50.038;8.078;2022-08-21T18:18:21;2.75;;;1.35;;
23490;SDS011;14683;50.038;8.078;2022-08-21T18:20:48;2.63;;;1.65;;
23490;SDS011;14683;50.038;8.078;2022-08-21T18:23:14;1.95;;;1.42;;
23490;SDS011;14683;50.038;8.078;2022-08-21T18:25:45;4.22;;;1.67;;
23490;SDS011;14683;50.038;8.078;2022-08-21T18:28:15;1.65;;;1.27;;
23490;SDS011;14683;50.038;8.078;2022-08-21T18:30:42;2.10;;;1.23;;
23490;SDS011;14683;50.038;8.078;2022-08-21T18:33:09;2.47;;;1.35;;
23490;SDS011;14683;50.038;8.078;2022-08-21T18:35:38;1.85;;;1.30;;
23490;SDS011;14683;50.038;8.078;2022-08-21T18:38:05;1.50;;;1.23;;
23490;SDS011;14683;50.038;8.078;2022-08-21T18:40:31;3.22;;;1.60;;
23490;SDS011;14683;50.038;8.078;2022-08-21T18:42:58;2.90;;;1.70;;
23490;SDS011;14683;50.038;8.078;2022-08-21T18:45:25;2.05;;;1.42;;
23490;SDS011;14683;50.038;8.078;2022-08-21T18:47:51;1.77;;;1.25;;
23490;SDS011;14683;50.038;8.078;2022-08-21T18:50:19;2.40;;;1.17;;
23490;SDS011;14683;50.038;8.078;2022-08-21T18:52:47;1.52;;;1.42;;
23490;SDS011;14683;50.038;8.078;2022-08-21T18:55:15;1.48;;;1.30;;
23490;SDS011;14683;50.038;8.078;2022-08-21T18:57:41;4.03;;;1.50;;
23490;SDS011;14683;50.038;8.078;2022-08-21T19:00:09;2.15;;;1.15;;
23490;SDS011;14683;50.038;8.078;2022-08-21T19:02:39;2.85;;;1.27;;
23490;SDS011;14683;50.038;8.078;2022-08-21T19:05:06;3.45;;;1.25;;
23490;SDS011;14683;50.038;8.078;2022-08-21T19:07:34;2.25;;;1.30;;
23490;SDS011;14683;50.038;8.078;2022-08-21T19:10:00;2.05;;;1.45;;
23490;SDS011;14683;50.038;8.078;2022-08-21T19:12:28;3.70;;;1.60;;
23490;SDS011;14683;50.038;8.078;2022-08-21T19:14:54;3.00;;;1.40;;
23490;SDS011;14683;50.038;8.078;2022-08-21T19:17:20;1.83;;;1.30;;
23490;SDS011;14683;50.038;8.078;2022-08-21T19:19:47;3.33;;;1.27;;
23490;SDS011;14683;50.038;8.078;2022-08-21T19:22:13;1.55;;;1.30;;
23490;SDS011;14683;50.038;8.078;2022-08-21T19:24:39;2.75;;;1.27;;
23490;SDS011;14683;50.038;8.078;2022-08-21T19:27:07;2.17;;;1.35;;
23490;SDS011;14683;50.038;8.078;2022-08-21T19:29:34;1.30;;;1.20;;
23490;SDS011;14683;50.038;8.078;2022-08-21T19:32:04;2.65;;;1.02;;
23490;SDS011;14683;50.038;8.078;2022-08-21T19:34:31;3.20;;;1.45;;
23490;SDS011;14683;50.038;8.078;2022-08-21T19:36:58;2.97;;;1.50;;
23490;SDS011;14683;50.038;8.078;2022-08-21T19:39:25;2.67;;;1.40;;
23490;SDS011;14683;50.038;8.078;2022-08-21T19:41:51;2.60;;;1.40;;
